createdAt,value
2022-11-25T00:01:17.302Z,100.00
2022-11-25T00:03:46.427Z,100.00
2022-11-25T00:06:16.293Z,100.00
2022-11-25T00:08:46.472Z,100.00
2022-11-25T00:11:16.769Z,100.00
2022-11-25T00:13:46.084Z,100.00
2022-11-25T00:16:16.452Z,100.00
2022-11-25T00:18:45.976Z,100.00
2022-11-25T00:21:18.730Z,100.00
2022-11-25T00:23:51.255Z,100.00
2022-11-25T00:26:20.689Z,100.00
2022-11-25T00:28:49.993Z,100.00
2022-11-25T00:31:19.575Z,100.00
2022-11-25T00:33:48.696Z,100.00
2022-11-25T00:36:19.040Z,100.00
2022-11-25T00:38:47.316Z,100.00
2022-11-25T00:41:33.040Z,100.00
2022-11-25T00:44:19.775Z,100.00
2022-11-25T00:46:47.700Z,100.00
2022-11-25T00:49:15.621Z,100.00
2022-11-25T00:51:43.527Z,100.00
2022-11-25T00:54:11.573Z,100.00
2022-11-25T00:56:39.570Z,100.00
2022-11-25T00:59:09.196Z,100.00
2022-11-25T01:01:37.666Z,100.00
2022-11-25T01:04:06.741Z,100.00
2022-11-25T01:06:34.748Z,100.00
2022-11-25T01:09:02.852Z,100.00
2022-11-25T01:11:30.787Z,100.00
2022-11-25T01:14:01.425Z,100.00
2022-11-25T01:16:31.868Z,100.00
2022-11-25T01:19:00.985Z,100.00
2022-11-25T01:21:30.487Z,100.00
2022-11-25T01:24:00.477Z,100.00
2022-11-25T01:26:29.364Z,100.00
2022-11-25T01:28:58.614Z,100.00
2022-11-25T01:31:29.725Z,100.00
2022-11-25T01:34:02.316Z,100.00
2022-11-25T01:36:31.083Z,100.00
2022-11-25T01:39:01.246Z,100.00
2022-11-25T01:41:31.174Z,100.00
2022-11-25T01:44:10.772Z,100.00
2022-11-25T01:46:46.005Z,100.00
2022-11-25T01:49:19.213Z,100.00
2022-11-25T01:51:53.006Z,100.00
2022-11-25T01:54:25.404Z,100.00
2022-11-25T01:56:58.232Z,100.00
2022-11-25T01:59:27.369Z,100.00
2022-11-25T02:01:56.316Z,100.00
2022-11-25T02:04:29.145Z,100.00
2022-11-25T02:07:02.016Z,100.00
2022-11-25T02:09:30.833Z,100.00
2022-11-25T02:11:59.294Z,100.00
2022-11-25T02:14:28.323Z,100.00
2022-11-25T02:16:56.532Z,100.00
2022-11-25T02:19:33.781Z,100.00
2022-11-25T02:22:07.468Z,100.00
2022-11-25T02:24:40.250Z,100.00
2022-11-25T02:27:09.884Z,100.00
2022-11-25T02:29:39.266Z,100.00
2022-11-25T02:32:07.416Z,100.00
2022-11-25T02:34:35.599Z,100.00
2022-11-25T02:37:03.787Z,100.00
2022-11-25T02:39:31.893Z,100.00
2022-11-25T02:42:01.549Z,100.00
2022-11-25T02:44:31.738Z,100.00
2022-11-25T02:46:59.652Z,100.00
2022-11-25T02:49:27.598Z,100.00
2022-11-25T02:51:55.530Z,100.00
2022-11-25T02:54:23.485Z,100.00
2022-11-25T02:56:51.518Z,100.00
2022-11-25T02:59:19.432Z,100.00
2022-11-25T03:01:48.810Z,100.00
2022-11-25T03:04:16.740Z,100.00
2022-11-25T03:06:44.741Z,100.00
2022-11-25T03:09:12.661Z,100.00
2022-11-25T03:11:57.785Z,100.00
2022-11-25T03:14:25.810Z,100.00
2022-11-25T03:16:55.163Z,100.00
2022-11-25T03:19:23.162Z,100.00
2022-11-25T03:21:51.280Z,100.00
2022-11-25T03:24:19.194Z,100.00
2022-11-25T03:26:47.112Z,100.00
2022-11-25T03:29:15.024Z,100.00
2022-11-25T03:31:42.982Z,100.00
2022-11-25T03:34:12.350Z,100.00
2022-11-25T03:36:40.627Z,100.00
2022-11-25T03:39:09.024Z,100.00
2022-11-25T03:41:37.049Z,100.00
2022-11-25T03:44:04.975Z,100.00
2022-11-25T03:46:33.022Z,100.00
2022-11-25T03:49:00.949Z,100.00
2022-11-25T03:51:30.331Z,100.00
2022-11-25T03:53:58.318Z,100.00
2022-11-25T03:56:26.303Z,100.00
2022-11-25T03:58:54.257Z,100.00
2022-11-25T04:01:22.311Z,100.00
2022-11-25T04:03:50.290Z,100.00
2022-11-25T04:06:20.219Z,100.00
2022-11-25T04:08:49.536Z,100.00
2022-11-25T04:11:17.640Z,100.00
2022-11-25T04:13:44.597Z,100.00
2022-11-25T04:16:21.222Z,100.00
2022-11-25T04:18:49.309Z,100.00
2022-11-25T04:21:17.519Z,100.00
2022-11-25T04:23:45.505Z,100.00
2022-11-25T04:26:15.484Z,100.00
2022-11-25T04:28:43.478Z,100.00
2022-11-25T04:31:11.890Z,100.00
2022-11-25T04:33:40.040Z,100.00
2022-11-25T04:36:08.957Z,100.00
2022-11-25T04:38:37.104Z,100.00
2022-11-25T04:41:05.725Z,100.00
2022-11-25T04:43:35.197Z,100.00
2022-11-25T04:46:14.090Z,100.00
2022-11-25T04:48:42.712Z,100.00
2022-11-25T04:51:10.862Z,100.00
2022-11-25T04:53:38.964Z,100.00
2022-11-25T04:56:07.654Z,100.00
2022-11-25T04:58:54.396Z,100.00
2022-11-25T05:01:22.505Z,100.00
2022-11-25T05:03:57.170Z,100.00
2022-11-25T05:06:25.789Z,100.00
2022-11-25T05:08:53.748Z,100.00
2022-11-25T05:11:21.689Z,100.00
2022-11-25T05:13:50.997Z,100.00
2022-11-25T05:16:19.018Z,100.00
2022-11-25T05:18:46.969Z,100.00
2022-11-25T05:21:15.010Z,100.00
2022-11-25T05:23:42.950Z,100.00
2022-11-25T05:26:10.963Z,100.00
2022-11-25T05:28:38.944Z,100.00
2022-11-25T05:31:08.692Z,100.00
2022-11-25T05:33:36.803Z,100.00
2022-11-25T05:36:05.661Z,100.00
2022-11-25T05:38:33.620Z,100.00
2022-11-25T05:41:02.837Z,100.00
2022-11-25T05:43:30.842Z,100.00
2022-11-25T05:45:58.831Z,100.00
2022-11-25T05:48:28.165Z,100.00
2022-11-25T05:50:56.109Z,100.00
2022-11-25T05:53:24.032Z,100.00
2022-11-25T05:55:56.544Z,100.00
2022-11-25T05:58:24.628Z,100.00
2022-11-25T06:00:53.457Z,100.00
2022-11-25T06:03:21.472Z,100.00
2022-11-25T06:05:50.906Z,100.00
2022-11-25T06:08:18.875Z,100.00
2022-11-25T06:10:46.849Z,100.00
2022-11-25T06:13:14.808Z,100.00
2022-11-25T06:15:43.927Z,100.00
2022-11-25T06:18:12.440Z,100.00
2022-11-25T06:20:40.695Z,100.00
2022-11-25T06:23:11.080Z,100.00
2022-11-25T06:25:39.295Z,100.00
2022-11-25T06:28:14.215Z,100.00
2022-11-25T06:30:42.152Z,100.00
2022-11-25T06:33:10.136Z,100.00
2022-11-25T06:35:38.051Z,100.00
2022-11-25T06:38:06.008Z,100.00
2022-11-25T06:40:35.324Z,100.00
2022-11-25T06:43:04.745Z,100.00
2022-11-25T06:45:33.563Z,100.00
2022-11-25T06:48:01.485Z,100.00
2022-11-25T06:50:29.453Z,100.00
2022-11-25T06:52:57.372Z,100.00
2022-11-25T06:55:25.312Z,100.00
2022-11-25T06:58:08.412Z,100.00
2022-11-25T07:00:43.785Z,100.00
2022-11-25T07:03:11.963Z,100.00
2022-11-25T07:05:40.045Z,100.00
2022-11-25T07:08:07.982Z,100.00
2022-11-25T07:10:36.127Z,100.00
2022-11-25T07:13:05.467Z,100.00
2022-11-25T07:15:35.479Z,99.56
2022-11-25T07:18:03.487Z,100.00
2022-11-25T07:20:32.858Z,99.58
2022-11-25T07:23:00.800Z,99.14
2022-11-25T07:25:30.799Z,98.64
2022-11-25T07:27:59.872Z,100.00
2022-11-25T07:31:21.857Z,99.28
2022-11-25T07:33:17.197Z,98.47
2022-11-25T07:35:45.506Z,99.01
2022-11-25T07:38:13.508Z,98.87
2022-11-25T07:40:41.430Z,98.52
2022-11-25T07:43:09.466Z,99.93
2022-11-25T07:45:38.943Z,99.47
2022-11-25T07:48:07.213Z,98.73
2022-11-25T07:50:35.176Z,97.78
2022-11-25T07:53:03.107Z,97.35
2022-11-25T07:55:31.102Z,97.18
2022-11-25T07:57:59.047Z,98.54
2022-11-25T08:00:27.343Z,95.07
2022-11-25T08:02:56.856Z,93.53
2022-11-25T08:05:24.836Z,94.63
2022-11-25T08:07:52.889Z,94.15
2022-11-25T08:10:21.000Z,94.98
2022-11-25T08:12:48.999Z,95.02
2022-11-25T08:15:16.978Z,93.28
2022-11-25T08:17:44.933Z,94.22
2022-11-25T08:20:14.919Z,93.80
2022-11-25T08:22:42.870Z,93.00
2022-11-25T08:25:11.321Z,92.88
2022-11-25T08:27:39.225Z,93.06
2022-11-25T08:30:08.668Z,93.16
2022-11-25T08:32:38.693Z,92.44
2022-11-25T08:35:07.814Z,92.99
2022-11-25T08:37:37.122Z,93.79
2022-11-25T08:40:05.996Z,94.17
2022-11-25T08:42:33.964Z,94.13
2022-11-25T08:45:01.870Z,92.99
2022-11-25T08:47:29.797Z,93.89
2022-11-25T08:49:57.875Z,95.54
2022-11-25T08:52:26.711Z,95.55
2022-11-25T08:54:56.088Z,93.55
2022-11-25T08:57:24.005Z,93.91
2022-11-25T08:59:51.932Z,94.22
2022-11-25T09:02:20.152Z,95.92
2022-11-25T09:04:48.111Z,95.73
2022-11-25T09:07:16.130Z,95.42
2022-11-25T09:09:44.561Z,95.27
2022-11-25T09:12:13.918Z,95.85
2022-11-25T09:14:41.923Z,95.03
2022-11-25T09:17:11.121Z,95.19
2022-11-25T09:19:39.803Z,93.25
2022-11-25T09:22:08.554Z,92.14
2022-11-25T09:24:36.624Z,90.66
2022-11-25T09:27:04.771Z,90.51
2022-11-25T09:29:34.316Z,87.74
2022-11-25T09:32:02.561Z,88.71
2022-11-25T09:34:30.525Z,90.00
2022-11-25T09:36:58.597Z,89.71
2022-11-25T09:39:30.038Z,91.28
2022-11-25T09:42:29.308Z,91.00
2022-11-25T09:45:35.113Z,92.55
2022-11-25T09:48:20.990Z,92.17
2022-11-25T09:50:59.368Z,92.99
2022-11-25T09:53:43.304Z,92.40
2022-11-25T09:56:20.344Z,92.89
2022-11-25T09:58:53.105Z,92.64
2022-11-25T10:01:25.922Z,92.20
2022-11-25T10:03:58.829Z,90.65
2022-11-25T10:06:30.060Z,90.84
2022-11-25T10:09:00.037Z,91.01
2022-11-25T10:11:48.410Z,90.26
2022-11-25T10:14:25.448Z,89.19
2022-11-25T10:17:04.692Z,89.37
2022-11-25T10:19:44.926Z,87.53
2022-11-25T10:22:22.665Z,88.27
2022-11-25T10:24:53.003Z,89.47
2022-11-25T10:27:26.627Z,88.91
2022-11-25T10:30:03.989Z,88.90
2022-11-25T10:32:40.914Z,91.18
2022-11-25T10:35:20.705Z,90.08
2022-11-25T10:37:55.195Z,88.91
2022-11-25T10:40:23.845Z,90.71
2022-11-25T10:42:51.861Z,90.49
2022-11-25T10:45:24.022Z,89.10
2022-11-25T10:48:07.683Z,90.17
2022-11-25T10:50:48.370Z,90.37
2022-11-25T10:53:21.709Z,90.00
2022-11-25T10:56:01.231Z,88.72
2022-11-25T10:58:32.643Z,89.15
2022-11-25T11:01:14.174Z,90.48
2022-11-25T11:03:45.269Z,87.81
2022-11-25T11:06:36.501Z,90.47
2022-11-25T11:09:05.673Z,89.97
2022-11-25T11:11:34.177Z,86.21
2022-11-25T11:14:14.945Z,89.84
2022-11-25T11:16:45.744Z,90.03
2022-11-25T11:19:26.791Z,88.89
2022-11-25T11:21:56.158Z,86.94
2022-11-25T11:24:28.613Z,85.24
2022-11-25T11:27:08.536Z,85.33
2022-11-25T11:29:37.070Z,85.99
2022-11-25T11:32:06.793Z,85.98
2022-11-25T11:35:00.756Z,86.44
2022-11-25T11:37:42.205Z,85.93
2022-11-25T11:40:26.979Z,86.97
2022-11-25T11:43:08.288Z,89.34
2022-11-25T11:45:49.489Z,86.76
2022-11-25T11:48:26.290Z,86.12
2022-11-25T11:51:04.115Z,89.14
2022-11-25T11:53:41.464Z,89.48
2022-11-25T11:59:14.259Z,84.39
2022-11-25T12:01:54.319Z,84.65
2022-11-25T12:04:28.959Z,83.27
2022-11-25T12:07:07.453Z,87.72
2022-11-25T12:09:43.258Z,90.60
2022-11-25T12:12:16.002Z,87.55
2022-11-25T12:14:48.287Z,83.95
2022-11-25T12:17:20.165Z,84.87
2022-11-25T12:19:56.741Z,84.60
2022-11-25T12:22:31.862Z,86.72
2022-11-25T12:25:07.061Z,86.67
2022-11-25T12:27:40.092Z,84.66
2022-11-25T12:30:11.737Z,85.74
2022-11-25T12:32:53.486Z,84.33
2022-11-25T12:35:29.264Z,85.71
2022-11-25T12:38:06.545Z,87.18
2022-11-25T12:40:38.753Z,85.02
2022-11-25T12:43:21.185Z,86.15
2022-11-25T12:46:00.160Z,89.02
2022-11-25T12:48:28.145Z,87.19
2022-11-25T12:51:04.208Z,86.34
2022-11-25T12:53:40.641Z,82.97
2022-11-25T12:56:19.325Z,88.45
2022-11-25T12:58:54.748Z,87.49
2022-11-25T13:01:50.880Z,81.92
2022-11-25T13:04:33.625Z,85.77
2022-11-25T13:07:27.100Z,88.30
2022-11-25T13:10:21.862Z,89.90
2022-11-25T13:13:04.041Z,95.16
2022-11-25T13:15:38.294Z,88.98
2022-11-25T13:18:15.402Z,91.86
2022-11-25T13:20:49.477Z,92.29
2022-11-25T13:23:29.528Z,93.50
2022-11-25T13:26:37.142Z,91.22
2022-11-25T13:30:04.227Z,91.75
2022-11-25T13:32:46.420Z,92.70
2022-11-25T13:35:51.852Z,93.14
2022-11-25T13:38:59.055Z,94.67
2022-11-25T13:41:41.850Z,95.14
2022-11-25T13:44:30.780Z,100.00
2022-11-25T13:47:01.792Z,98.18
2022-11-25T13:49:45.380Z,96.70
2022-11-25T13:52:39.303Z,96.06
2022-11-25T13:55:23.142Z,95.61
2022-11-25T13:58:04.057Z,97.01
2022-11-25T14:00:50.667Z,98.62
2022-11-25T14:03:52.244Z,100.00
2022-11-25T14:06:44.318Z,100.00
2022-11-25T14:09:27.597Z,100.00
2022-11-25T14:12:08.952Z,100.00
2022-11-25T14:14:56.870Z,100.00
2022-11-25T14:17:49.636Z,99.92
2022-11-25T14:20:32.312Z,98.88
2022-11-25T14:23:22.813Z,98.24
2022-11-25T14:25:53.301Z,97.57
2022-11-25T14:28:32.111Z,97.88
2022-11-25T14:31:06.440Z,96.31
2022-11-25T14:33:37.805Z,97.44
2022-11-25T14:36:12.232Z,97.24
2022-11-25T14:38:46.454Z,97.09
2022-11-25T14:41:17.773Z,95.71
2022-11-25T14:43:52.118Z,94.89
2022-11-25T14:46:22.312Z,93.19
2022-11-25T14:48:55.372Z,92.49
2022-11-25T14:51:24.361Z,93.48
2022-11-25T14:53:54.176Z,91.00
2022-11-25T14:56:28.932Z,91.61
2022-11-25T14:58:59.273Z,90.31
2022-11-25T15:01:28.776Z,89.61
2022-11-25T15:04:04.093Z,89.99
2022-11-25T15:06:35.607Z,91.19
2022-11-25T15:09:23.112Z,91.87
2022-11-25T15:11:56.531Z,91.65
2022-11-25T15:14:30.460Z,91.93
2022-11-25T15:16:59.333Z,94.56
2022-11-25T15:19:33.906Z,96.27
2022-11-25T15:24:56.174Z,99.53
2022-11-25T15:27:27.361Z,100.00
2022-11-25T15:29:56.725Z,100.00
2022-11-25T15:32:27.853Z,100.00
2022-11-25T15:34:58.345Z,100.00
2022-11-25T15:37:26.514Z,100.00
2022-11-25T15:40:28.020Z,100.00
2022-11-25T15:42:58.151Z,100.00
2022-11-25T15:45:28.387Z,100.00
2022-11-25T15:47:58.243Z,100.00
2022-11-25T15:50:28.279Z,100.00
2022-11-25T15:52:59.593Z,100.00
2022-11-25T15:55:33.046Z,100.00
2022-11-25T15:58:07.615Z,100.00
2022-11-25T16:00:35.568Z,100.00
2022-11-25T16:03:04.328Z,100.00
2022-11-25T16:05:35.976Z,100.00
2022-11-25T16:08:26.731Z,100.00
2022-11-25T16:10:57.717Z,100.00
2022-11-25T16:13:35.306Z,100.00
2022-11-25T16:16:33.565Z,100.00
2022-11-25T16:19:22.164Z,100.00
2022-11-25T16:21:57.134Z,100.00
2022-11-25T16:24:42.752Z,100.00
2022-11-25T16:27:19.305Z,100.00
2022-11-25T16:29:54.457Z,100.00
2022-11-25T16:32:24.525Z,100.00
2022-11-25T16:34:52.763Z,100.00
2022-11-25T16:37:20.754Z,100.00
2022-11-25T16:39:48.714Z,100.00
2022-11-25T16:42:21.625Z,100.00
2022-11-25T16:44:52.834Z,100.00
2022-11-25T16:47:22.800Z,100.00
2022-11-25T16:49:50.780Z,100.00
2022-11-25T16:52:18.796Z,100.00
2022-11-25T16:54:47.511Z,100.00
2022-11-25T16:57:20.320Z,100.00
2022-11-25T16:59:57.259Z,100.00
2022-11-25T17:02:26.476Z,100.00
2022-11-25T17:04:54.912Z,100.00
2022-11-25T17:07:38.371Z,100.00
2022-11-25T17:10:08.174Z,100.00
2022-11-25T17:12:37.469Z,100.00
2022-11-25T17:15:13.726Z,100.00
2022-11-25T17:17:41.976Z,100.00
2022-11-25T17:20:16.987Z,100.00
2022-11-25T17:22:44.957Z,100.00
2022-11-25T17:25:13.689Z,100.00
2022-11-25T17:27:42.683Z,100.00
2022-11-25T17:30:19.758Z,100.00
2022-11-25T17:32:48.637Z,100.00
2022-11-25T17:35:19.492Z,100.00
2022-11-25T17:37:47.878Z,100.00
2022-11-25T17:40:16.297Z,100.00
2022-11-25T17:42:45.978Z,100.00
2022-11-25T17:45:16.945Z,100.00
2022-11-25T17:47:45.563Z,100.00
2022-11-25T17:50:19.519Z,100.00
2022-11-25T17:52:47.577Z,100.00
2022-11-25T17:55:19.747Z,100.00
2022-11-25T17:57:50.669Z,100.00
2022-11-25T18:00:23.479Z,100.00
2022-11-25T18:02:52.337Z,100.00
2022-11-25T18:05:22.208Z,100.00
2022-11-25T18:07:50.966Z,100.00
2022-11-25T18:10:21.609Z,100.00
2022-11-25T18:12:53.155Z,100.00
2022-11-25T18:15:25.899Z,100.00
2022-11-25T18:18:00.864Z,100.00
2022-11-25T18:20:31.103Z,100.00
2022-11-25T18:22:59.241Z,100.00
2022-11-25T18:25:31.683Z,100.00
2022-11-25T18:28:01.550Z,100.00
2022-11-25T18:30:33.796Z,100.00
2022-11-25T18:33:02.363Z,100.00
2022-11-25T18:35:36.139Z,100.00
2022-11-25T18:38:05.948Z,100.00
2022-11-25T18:40:35.376Z,100.00
2022-11-25T18:43:05.507Z,100.00
2022-11-25T18:45:37.318Z,100.00
2022-11-25T18:48:15.213Z,100.00
2022-11-25T18:50:44.781Z,100.00
2022-11-25T18:53:13.176Z,100.00
2022-11-25T18:55:41.945Z,100.00
2022-11-25T18:58:16.644Z,100.00
2022-11-25T19:00:48.587Z,100.00
2022-11-25T19:03:19.825Z,100.00
2022-11-25T19:05:48.245Z,100.00
2022-11-25T19:08:16.429Z,100.00
2022-11-25T19:10:47.097Z,100.00
2022-11-25T19:13:18.981Z,100.00
2022-11-25T19:15:49.140Z,100.00
2022-11-25T19:18:24.121Z,100.00
2022-11-25T19:20:52.173Z,100.00
2022-11-25T19:23:25.485Z,100.00
2022-11-25T19:25:55.457Z,100.00
2022-11-25T19:28:23.772Z,100.00
2022-11-25T19:30:58.320Z,100.00
2022-11-25T19:33:30.373Z,100.00
2022-11-25T19:35:59.096Z,100.00
2022-11-25T19:38:27.393Z,100.00
2022-11-25T19:40:56.664Z,100.00
2022-11-25T19:43:27.143Z,99.96
2022-11-25T19:45:57.690Z,100.00
2022-11-25T19:48:28.501Z,100.00
2022-11-25T19:50:59.890Z,100.00
2022-11-25T19:53:33.578Z,100.00
2022-11-25T19:56:04.616Z,100.00
2022-11-25T19:58:33.278Z,100.00
2022-11-25T20:01:06.129Z,100.00
2022-11-25T20:03:34.620Z,100.00
2022-11-25T20:06:02.689Z,100.00
2022-11-25T20:08:30.740Z,100.00
2022-11-25T20:10:59.540Z,100.00
2022-11-25T20:13:27.844Z,100.00
2022-11-25T20:15:56.628Z,100.00
2022-11-25T20:18:28.628Z,100.00
2022-11-25T20:21:01.297Z,100.00
2022-11-25T20:23:32.520Z,100.00
2022-11-25T20:26:00.708Z,100.00
2022-11-25T20:28:31.151Z,100.00
2022-11-25T20:31:00.172Z,100.00
2022-11-25T20:33:29.495Z,100.00
2022-11-25T20:36:06.338Z,100.00
2022-11-25T20:38:37.273Z,100.00
2022-11-25T20:41:05.685Z,100.00
2022-11-25T20:43:36.770Z,100.00
2022-11-25T20:46:05.644Z,99.72
2022-11-25T20:48:38.182Z,99.17
2022-11-25T20:51:13.299Z,99.52
2022-11-25T20:53:45.005Z,98.51
2022-11-25T20:56:15.949Z,97.13
2022-11-25T20:58:44.824Z,96.13
2022-11-25T21:01:14.479Z,96.10
2022-11-25T21:03:44.333Z,96.12
2022-11-25T21:06:20.940Z,95.74
2022-11-25T21:08:51.204Z,96.10
2022-11-25T21:11:20.084Z,96.10
2022-11-25T21:13:48.611Z,96.04
2022-11-25T21:16:17.283Z,96.50
2022-11-25T21:18:47.006Z,96.85
2022-11-25T21:21:19.216Z,97.07
2022-11-25T21:23:48.838Z,97.23
2022-11-25T21:26:19.748Z,97.24
2022-11-25T21:28:48.997Z,97.19
2022-11-25T21:31:18.884Z,97.38
2022-11-25T21:33:48.955Z,96.41
2022-11-25T21:36:20.684Z,97.12
2022-11-25T21:38:50.292Z,98.64
2022-11-25T21:41:19.063Z,99.03
2022-11-25T21:43:50.580Z,99.58
2022-11-25T21:46:20.666Z,98.80
2022-11-25T21:48:50.773Z,99.12
2022-11-25T21:51:21.823Z,97.83
2022-11-25T21:53:50.934Z,97.81
2022-11-25T21:56:24.382Z,98.36
2022-11-25T21:58:52.910Z,97.74
2022-11-25T22:01:21.211Z,97.40
2022-11-25T22:03:51.005Z,97.09
2022-11-25T22:06:22.728Z,96.92
2022-11-25T22:08:51.141Z,96.59
2022-11-25T22:11:23.892Z,96.53
2022-11-25T22:13:52.519Z,95.62
2022-11-25T22:16:27.476Z,95.94
2022-11-25T22:18:57.521Z,96.57
2022-11-25T22:21:25.672Z,96.83
2022-11-25T22:23:53.734Z,97.35
2022-11-25T22:26:27.509Z,97.61
2022-11-25T22:28:55.572Z,97.06
2022-11-25T22:31:25.195Z,96.01
2022-11-25T22:33:53.410Z,95.95
2022-11-25T22:36:32.677Z,96.88
2022-11-25T22:39:10.149Z,97.52
2022-11-25T22:41:38.159Z,98.10
2022-11-25T22:44:06.431Z,98.83
2022-11-25T22:46:37.624Z,98.63
2022-11-25T22:49:05.620Z,97.61
2022-11-25T22:51:34.939Z,98.25
2022-11-25T22:54:02.912Z,98.17
2022-11-25T22:56:31.323Z,97.51
2022-11-25T22:59:01.160Z,97.42
2022-11-25T23:01:29.206Z,96.38
2022-11-25T23:03:57.162Z,95.86
2022-11-25T23:06:27.134Z,96.14
2022-11-25T23:08:56.544Z,96.60
2022-11-25T23:11:24.554Z,95.94
2022-11-25T23:13:52.488Z,97.15
2022-11-25T23:16:20.491Z,96.86
2022-11-25T23:18:48.695Z,97.63
2022-11-25T23:21:19.039Z,98.83
2022-11-25T23:23:47.129Z,96.96
2022-11-25T23:26:16.499Z,96.48
2022-11-25T23:28:44.450Z,96.75
2022-11-25T23:31:14.543Z,96.45
2022-11-25T23:33:46.006Z,97.29
2022-11-25T23:36:22.482Z,96.20
2022-11-25T23:38:52.921Z,96.33
2022-11-25T23:41:25.012Z,97.25
2022-11-25T23:43:53.743Z,97.18
2022-11-25T23:46:25.177Z,96.89
2022-11-25T23:48:56.034Z,96.47
2022-11-25T23:51:25.280Z,96.52
2022-11-25T23:53:54.623Z,96.46
2022-11-25T23:56:24.440Z,95.97
2022-11-25T23:58:52.364Z,96.10
